Latest Weather Observations for Thevenard

IDS60801

Issued at 9:05 pm CST Thursday 18 September 2014 (issued every 30 minutes, with the page automatically refreshed every 10 minutes)

About weather observations | Map of weather stations | Latest weather observations for SA | Other Formats
Station Details ID: 018200 Name: THEVENARD WIND Lat: -32.18 Lon: 133.63 Height: 8.85 m
Data from the previous 72 hours. | See also: Recent months for locations in South Australia
Date/Time
CST
Temp
°C
App
Temp
°C
Dew
Point
Rel
Hum
%
Delta-T
°C
Wind Press
QNH
hPa
Press
MSL
hPa
Rain
since 9 am
mm
Dir
 
Spd
km/h
Gust
km/h
Spd
kts
Gust
kts
18/09:00pm - - - - - SE 35 39 19 21 - - -
18/08:30pm - - - - - SE 32 39 17 21 - - -
18/08:00pm - - - - - SE 37 44 20 24 - - -
18/07:30pm - - - - - SE 37 44 20 24 - - -
18/07:00pm - - - - - SSE 37 44 20 24 - - -
18/06:30pm - - - - - SSE 39 44 21 24 - - -
18/06:00pm - - - - - SSE 37 44 20 24 - - -
18/05:30pm - - - - - SSE 37 44 20 24 - - -
18/05:00pm - - - - - SSE 39 44 21 24 - - -
18/04:30pm - - - - - S 37 43 20 23 - - -
18/04:00pm - - - - - S 32 39 17 21 - - -
18/03:30pm - - - - - S 33 39 18 21 - - -
18/03:00pm - - - - - S 33 39 18 21 - - -
18/02:30pm - - - - - S 35 39 19 21 - - -
18/02:00pm - - - - - S 33 39 18 21 - - -
18/01:30pm - - - - - S 28 32 15 17 - - -
18/01:00pm - - - - - S 26 32 14 17 - - -
18/12:30pm - - - - - SSE 26 32 14 17 - - -
18/12:00pm - - - - - SSE 28 33 15 18 - - -
18/11:30am - - - - - SSE 24 28 13 15 - - -
18/11:00am - - - - - SSE 20 24 11 13 - - -
18/10:30am - - - - - SE 15 19 8 10 - - -
18/10:00am - - - - - SE 15 22 8 12 - - -
18/09:30am - - - - - ESE 17 22 9 12 - - -
18/09:00am - - - - - ESE 17 20 9 11 - - -
18/08:30am - - - - - ESE 19 22 10 12 - - -
18/08:00am - - - - - ESE 20 24 11 13 - - -
18/07:30am - - - - - ESE 22 30 12 16 - - -
18/07:00am - - - - - ESE 24 32 13 17 - - -
18/06:30am - - - - - ESE 20 26 11 14 - - -
18/06:00am - - - - - ESE 20 26 11 14 - - -
18/05:30am - - - - - ESE 20 26 11 14 - - -
18/05:00am - - - - - ESE 20 24 11 13 - - -
18/04:30am - - - - - E 20 24 11 13 - - -
18/04:00am - - - - - ESE 20 24 11 13 - - -
18/03:30am - - - - - ESE 20 24 11 13 - - -
18/03:00am - - - - - ESE 20 24 11 13 - - -
18/02:30am - - - - - ESE 20 28 11 15 - - -
18/02:00am - - - - - E 20 26 11 14 - - -
18/01:30am - - - - - ESE 26 30 14 16 - - -
18/01:00am - - - - - E 24 28 13 15 - - -
18/12:30am - - - - - ESE 24 30 13 16 - - -
18/12:00am - - - - - ESE 24 26 13 14 - - -
 
Date/Time
CST
Temp
°C
App
Temp
°C
Dew
Point
Rel
Hum
%
Delta-T
°C
Wind Press
QNH
hPa
Press
MSL
hPa
Rain
since 9 am
mm
Dir
 
Spd
km/h
Gust
km/h
Spd
kts
Gust
kts
17/11:30pm - - - - - ESE 22 26 12 14 - - -
17/11:00pm - - - - - SE 24 32 13 17 - - -
17/10:30pm - - - - - SE 24 32 13 17 - - -
17/10:00pm - - - - - SE 26 32 14 17 - - -
17/09:30pm - - - - - SSE 32 37 17 20 - - -
17/09:00pm - - - - - SSE 30 35 16 19 - - -
17/08:30pm - - - - - SSE 32 35 17 19 - - -
17/08:00pm - - - - - S 32 39 17 21 - - -
17/07:30pm - - - - - S 33 39 18 21 - - -
17/07:00pm - - - - - S 32 39 17 21 - - -
17/06:30pm - - - - - S 33 37 18 20 - - -
17/06:00pm - - - - - S 30 33 16 18 - - -
17/05:30pm - - - - - S 32 35 17 19 - - -
17/05:00pm - - - - - S 30 33 16 18 - - -
17/04:30pm - - - - - S 28 32 15 17 - - -
17/04:00pm - - - - - S 28 32 15 17 - - -
17/03:30pm - - - - - S 28 32 15 17 - - -
17/03:00pm - - - - - S 28 32 15 17 - - -
17/02:30pm - - - - - S 24 30 13 16 - - -
17/02:00pm - - - - - S 20 20 11 11 - - -
17/01:30pm - - - - - SW 17 20 9 11 - - -
17/01:00pm - - - - - SW 17 22 9 12 - - -
17/12:30pm - - - - - SSW 17 19 9 10 - - -
17/12:00pm - - - - - S 11 15 6 8 - - -
17/11:30am - - - - - S 7 11 4 6 - - -
17/11:00am - - - - - S 7 11 4 6 - - -
17/10:30am - - - - - SSE 7 11 4 6 - - -
17/10:00am - - - - - NNW 6 9 3 5 - - -
17/09:30am - - - - - NNE 6 7 3 4 - - -
17/09:00am - - - - - NNE 7 11 4 6 - - -
17/08:30am - - - - - ENE 9 13 5 7 - - -
17/08:00am - - - - - ESE 7 17 4 9 - - -
17/07:30am - - - - - ENE 6 9 3 5 - - -
17/07:00am - - - - - ESE 9 19 5 10 - - -
17/06:30am - - - - - S 15 20 8 11 - - -
17/06:00am - - - - - S 19 24 10 13 - - -
17/05:30am - - - - - S 17 22 9 12 - - -
17/05:00am - - - - - S 19 22 10 12 - - -
17/04:30am - - - - - SSW 11 17 6 9 - - -
17/04:00am - - - - - SSW 13 15 7 8 - - -
17/03:30am - - - - - SSW 19 20 10 11 - - -
17/03:00am - - - - - SSW 19 22 10 12 - - -
17/02:30am - - - - - S 17 22 9 12 - - -
17/02:00am - - - - - SSW 24 30 13 16 - - -
17/01:30am - - - - - SSW 26 30 14 16 - - -
17/01:00am - - - - - SSW 24 30 13 16 - - -
17/12:30am - - - - - S 19 24 10 13 - - -
17/12:00am - - - - - SSW 20 26 11 14 - - -
 
Date/Time
CST
Temp
°C
App
Temp
°C
Dew
Point
Rel
Hum
%
Delta-T
°C
Wind Press
QNH
hPa
Press
MSL
hPa
Rain
since 9 am
mm
Dir
 
Spd
km/h
Gust
km/h
Spd
kts
Gust
kts
16/11:30pm - - - - - S 22 28 12 15 - - -
16/11:00pm - - - - - S 24 30 13 16 - - -
16/10:30pm - - - - - SSW 22 32 12 17 - - -
16/10:00pm - - - - - SSW 22 24 12 13 - - -
16/09:30pm - - - - - SSW 19 22 10 12 - - -
16/09:00pm - - - - - SSW 22 26 12 14 - - -
16/08:30pm - - - - - SSW 22 26 12 14 - - -
16/08:00pm - - - - - SSW 24 30 13 16 - - -
16/07:30pm - - - - - SSW 28 33 15 18 - - -
16/07:00pm - - - - - SSW 33 39 18 21 - - -
16/06:30pm - - - - - SW 35 43 19 23 - - -
16/06:00pm - - - - - SW 35 41 19 22 - - -
16/05:30pm - - - - - SW 35 43 19 23 - - -
16/05:00pm - - - - - SW 32 39 17 21 - - -
16/04:30pm - - - - - SW 28 32 15 17 - - -
16/04:00pm - - - - - SW 26 32 14 17 - - -
16/03:30pm - - - - - WSW 24 30 13 16 - - -
16/03:00pm - - - - - SW 28 32 15 17 - - -
16/02:00pm - - - - - SW 26 30 14 16 - - -
16/01:30pm - - - - - SW 20 24 11 13 - - -
16/01:00pm - - - - - SW 17 19 9 10 - - -
16/12:30pm - - - - - SW 17 19 9 10 - - -
16/12:00pm - - - - - SW 13 17 7 9 - - -
16/11:30am - - - - - SW 11 15 6 8 - - -
16/11:00am - - - - - SW 9 13 5 7 - - -
16/10:30am - - - - - W 9 13 5 7 - - -
16/10:00am - - - - - WSW 7 11 4 6 - - -
16/09:30am - - - - - W 11 15 6 8 - - -
16/09:00am - - - - - N 11 13 6 7 - - -
16/08:30am - - - - - SW 7 11 4 6 - - -
16/08:00am - - - - - SW 9 11 5 6 - - -
16/07:30am - - - - - SSW 11 13 6 7 - - -
16/07:00am - - - - - SSW 11 13 6 7 - - -
16/06:30am - - - - - SSW 11 13 6 7 - - -
16/06:00am - - - - - SSW 15 19 8 10 - - -
16/05:30am - - - - - SSW 17 20 9 11 - - -
16/05:00am - - - - - SSW 19 22 10 12 - - -
16/04:30am - - - - - SSW 17 19 9 10 - - -
16/04:00am - - - - - SSW 19 20 10 11 - - -
16/03:30am - - - - - SSW 19 24 10 13 - - -
16/03:00am - - - - - SSW 20 22 11 12 - - -
16/02:30am - - - - - SSW 20 26 11 14 - - -
16/02:00am - - - - - SSW 22 26 12 14 - - -
16/01:30am - - - - - SSW 19 22 10 12 - - -
16/01:00am - - - - - SSW 19 22 10 12 - - -
16/12:30am - - - - - SSW 17 20 9 11 - - -
16/12:00am - - - - - SSW 19 24 10 13 - - -
 
Date/Time
CST
Temp
°C
App
Temp
°C
Dew
Point
Rel
Hum
%
Delta-T
°C
Wind Press
QNH
hPa
Press
MSL
hPa
Rain
since 9 am
mm
Dir
 
Spd
km/h
Gust
km/h
Spd
kts
Gust
kts
15/11:30pm - - - - - SSW 13 17 7 9 - - -
15/11:00pm - - - - - SSW 15 19 8 10 - - -
15/10:30pm - - - - - SSW 15 17 8 9 - - -
15/10:00pm - - - - - SSW 13 15 7 8 - - -
15/09:30pm - - - - - SSW 13 15 7 8 - - -

Other Formats:

Comma delimited format used in spreadsheet applications
http://www.bom.gov.au/fwo/IDS60801/IDS60801.95653.axf

JavaScript Object Notation format (JSON) in row-major order
http://www.bom.gov.au/fwo/IDS60801/IDS60801.95653.json